Time;durP1;ratioP1;P1;durP2;ratioP2;P2;SDS_P1;SDS_P2;PMS_P1;PMS_P2;Temp;Humidity;BMP_temperature;BMP_pressure;BME280_temperature;BME280_humidity;BME280_pressure;Samples;Min_cycle;Max_cycle;Signal;HPM_P1;HPM_P2
2021/12/12 00:01:35;;;;;;;30.00;12.20;;;;;;;0.06;98.84;100908.59;5038258;28;20045;-77
2021/12/12 00:04:12;;;;;;;30.50;13.25;;;;;;;-0.10;99.41;100889.06;5033794;28;20389;-77
2021/12/12 00:06:55;;;;;;;36.72;14.98;;;;;;;-0.23;99.85;100900.63;5033739;28;20057;-78
2021/12/12 00:09:28;;;;;;;29.65;13.10;;;;;;;-0.31;99.64;100901.63;5033125;28;20041;-77
2021/12/12 00:11:58;;;;;;;20.08;10.25;;;;;;;-0.38;100.00;100897.22;5032538;28;20053;-77
2021/12/12 00:14:34;;;;;;;16.52;8.80;;;;;;;-0.24;100.00;100906.19;5033667;28;20046;-77
2021/12/12 00:17:06;;;;;;;12.88;8.23;;;;;;;-0.18;100.00;100908.09;5032431;28;20488;-77
2021/12/12 00:19:35;;;;;;;17.25;8.32;;;;;;;-0.05;99.34;100902.75;5033041;28;20033;-77
2021/12/12 00:22:09;;;;;;;16.85;8.88;;;;;;;0.05;98.79;100910.44;5065586;28;20041;-77
2021/12/12 00:24:39;;;;;;;;;;;;;;;0.09;99.05;100918.94;5033930;28;20064;-77
2021/12/12 00:27:07;;;;;;;24.15;10.27;;;;;;;-0.02;99.25;100923.06;5033577;28;20414;-77
2021/12/12 00:29:36;;;;;;;18.65;8.73;;;;;;;0.06;98.66;100919.38;5033008;28;20392;-76
2021/12/12 00:32:08;;;;;;;15.98;8.50;;;;;;;-0.01;97.90;100914.78;5032137;28;20045;-77
2021/12/12 00:34:39;;;;;;;19.75;8.57;;;;;;;0.07;97.16;100905.72;5033199;28;20065;-76
2021/12/12 00:37:08;;;;;;;19.20;9.35;;;;;;;0.26;97.12;100917.56;5033186;28;20054;-76
2021/12/12 00:39:40;;;;;;;17.77;8.52;;;;;;;0.31;95.66;100916.97;5032825;28;20049;-77
2021/12/12 00:42:20;;;;;;;15.40;8.88;;;;;;;0.29;95.11;100919.00;5019588;28;20057;-76
2021/12/12 00:44:53;;;;;;;14.40;8.32;;;;;;;0.32;94.49;100915.09;5033039;28;20050;-76
2021/12/12 00:47:22;;;;;;;16.50;8.32;;;;;;;0.44;94.20;100915.34;5033287;28;20064;-77
2021/12/12 00:50:10;;;;;;;16.05;8.52;;;;;;;0.28;94.49;100905.78;5026116;28;20061;-78
2021/12/12 00:52:39;;;;;;;18.80;10.25;;;;;;;0.27;95.33;100923.78;5030744;28;20044;-78
2021/12/12 00:55:07;;;;;;;17.95;8.55;;;;;;;0.13;96.19;100937.22;5033028;28;20068;-78
2021/12/12 00:57:35;;;;;;;16.23;8.68;;;;;;;-0.04;95.92;100931.31;5064405;28;20064;-78
2021/12/12 01:00:07;;;;;;;14.27;8.68;;;;;;;-0.08;95.73;100927.41;5032487;28;20042;-78
2021/12/12 01:02:35;;;;;;;17.10;9.30;;;;;;;-0.16;96.97;100931.06;5031503;28;20049;-78
2021/12/12 01:05:06;;;;;;;16.58;8.70;;;;;;;-0.01;95.40;100922.88;5032771;28;20046;-78
2021/12/12 01:07:39;;;;;;;15.88;8.00;;;;;;;-0.05;96.25;100929.66;5032640;28;20041;-78
2021/12/12 01:10:23;;;;;;;18.45;8.55;;;;;;;0.10;96.58;100947.53;5032467;28;20056;-78
2021/12/12 01:12:53;;;;;;;16.80;8.75;;;;;;;-0.05;96.66;100934.25;5032441;28;20384;-78
2021/12/12 01:15:30;;;;;;;18.67;8.48;;;;;;;-0.06;96.51;100937.94;5032587;28;20060;-78
2021/12/12 01:18:04;;;;;;;14.52;7.82;;;;;;;-0.06;96.18;100932.56;5032422;28;20480;-78
2021/12/12 01:20:51;;;;;;;14.40;8.25;;;;;;;-0.07;97.41;100947.88;5032223;28;20048;-78
2021/12/12 01:23:30;;;;;;;16.90;8.32;;;;;;;0.12;96.11;100937.41;5019675;28;20551;-78
2021/12/12 01:26:03;;;;;;;15.07;8.07;;;;;;;0.21;95.55;100938.06;5032230;28;20046;-78
2021/12/12 01:28:33;;;;;;;13.20;7.15;;;;;;;0.44;93.36;100945.78;5032513;28;20057;-78
2021/12/12 01:31:07;;;;;;;17.63;7.93;;;;;;;0.39;93.56;100964.44;5031920;28;20049;-78
2021/12/12 01:33:36;;;;;;;17.58;7.93;;;;;;;0.18;94.20;100966.19;5031938;28;20053;-78
2021/12/12 01:36:06;;;;;;;12.10;7.18;;;;;;;0.10;95.15;100967.19;5018182;28;20050;-78
2021/12/12 01:38:52;;;;;;;16.38;8.02;;;;;;;0.06;95.64;100983.97;5032235;28;20049;-77
2021/12/12 01:41:31;;;;;;;12.30;7.93;;;;;;;0.09;95.24;100967.41;5028290;28;20049;-78
2021/12/12 01:44:10;;;;;;;13.50;7.35;;;;;;;0.06;95.61;100973.19;5032273;28;20487;-77
2021/12/12 01:46:45;;;;;;;12.82;7.50;;;;;;;0.11;95.82;100992.25;5031974;28;20045;-77
2021/12/12 01:49:20;;;;;;;15.90;7.68;;;;;;;0.06;94.86;100982.09;5025874;28;20045;-77
2021/12/12 01:51:50;;;;;;;13.25;6.95;;;;;;;-0.01;94.98;100990.13;5027449;28;20064;-77
2021/12/12 01:54:25;;;;;;;12.23;6.97;;;;;;;-0.02;95.25;100993.88;5031978;28;20052;-77
2021/12/12 01:56:59;;;;;;;14.43;7.45;;;;;;;-0.03;95.39;100996.75;5031822;28;20404;-77
2021/12/12 01:59:32;;;;;;;20.25;9.20;;;;;;;-0.17;96.25;100993.16;5018815;28;20053;-77
2021/12/12 02:02:11;;;;;;;27.83;9.43;;;;;;;-0.22;96.34;101001.81;5031950;28;20053;-78
2021/12/12 02:04:45;;;;;;;15.77;8.00;;;;;;;-0.01;96.48;100984.75;5031986;28;20528;-78
2021/12/12 02:07:15;;;;;;;;;;;;;;;0.15;92.51;100972.00;5031974;28;20488;-77
2021/12/12 02:09:44;;;;;;;12.63;6.88;;;;;;;0.38;90.43;100976.19;5031949;28;19943;-77
2021/12/12 02:12:14;;;;;;;18.55;8.10;;;;;;;0.47;89.85;100966.94;5031837;28;20057;-78
2021/12/12 02:14:42;;;;;;;13.65;7.75;;;;;;;0.49;90.16;100972.13;5031634;28;20042;-78
2021/12/12 02:17:20;;;;;;;14.02;7.22;;;;;;;0.44;89.68;100970.00;5031530;28;20133;-78
2021/12/12 02:22:39;;;;;;;12.18;7.40;;;;;;;0.41;89.56;100959.66;5031644;28;20171;-78
2021/12/12 02:36:22;;;;;;;17.33;9.02;;;;;;;0.44;87.27;100979.97;5031469;28;20045;-78
2021/12/12 02:38:52;;;;;;;13.65;9.15;;;;;;;0.49;87.03;100983.69;5031717;28;20048;-78
2021/12/12 02:41:23;;;;;;;16.08;8.35;;;;;;;0.48;87.31;100994.66;5031292;28;20057;-78
2021/12/12 02:44:01;;;;;;;17.08;7.63;;;;;;;0.38;87.96;100981.59;5031635;28;20396;-78
2021/12/12 02:46:34;;;;;;;14.27;7.95;;;;;;;0.38;88.50;101000.44;5034904;28;20045;-78
2021/12/12 02:49:10;;;;;;;16.10;8.77;;;;;;;0.42;88.10;101004.41;5030157;28;20046;-78
2021/12/12 02:51:40;;;;;;;18.85;9.18;;;;;;;0.27;90.00;101023.41;5033756;28;20296;-78
2021/12/12 02:54:10;;;;;;;20.70;9.50;;;;;;;0.19;91.84;101005.53;5034794;28;20061;-78
2021/12/12 02:56:46;;;;;;;19.08;9.80;;;;;;;0.20;92.45;101011.78;5034429;28;20045;-78
2021/12/12 02:59:18;;;;;;;16.08;9.57;;;;;;;0.02;94.68;101017.66;5034374;28;20050;-78
2021/12/12 03:01:54;;;;;;;13.27;9.20;;;;;;;-0.05;95.96;101036.50;5034404;28;20052;-78
2021/12/12 03:04:25;;;;;;;18.60;10.70;;;;;;;-0.29;97.59;101027.84;5034548;28;20041;-78
2021/12/12 03:06:55;;;;;;;20.85;10.55;;;;;;;-0.36;98.86;101043.09;5025633;28;20049;-77
2021/12/12 03:09:27;;;;;;;26.85;11.52;;;;;;;-0.50;100.00;101047.56;5034410;28;20049;-77
2021/12/12 03:12:00;;;;;;;22.52;11.10;;;;;;;-0.59;100.00;101042.28;5041910;28;20048;-77
2021/12/12 03:14:34;;;;;;;19.80;11.90;;;;;;;-0.65;100.00;101026.94;5034260;28;20056;-77
2021/12/12 03:17:13;;;;;;;21.85;11.93;;;;;;;-0.56;100.00;101041.91;5027682;28;20046;-78
2021/12/12 03:19:46;;;;;;;24.35;11.85;;;;;;;-0.51;100.00;101037.78;5034025;28;20404;-78
2021/12/12 03:22:15;;;;;;;24.33;11.67;;;;;;;-0.47;100.00;101042.63;5034266;28;20045;-78
2021/12/12 03:24:43;;;;;;;20.60;11.50;;;;;;;-0.55;100.00;101043.59;5033918;28;20299;-78
2021/12/12 03:27:11;;;;;;;25.98;12.30;;;;;;;-0.64;100.00;101049.28;5034035;28;20049;-78
2021/12/12 03:29:41;;;;;;;20.83;12.13;;;;;;;-0.63;100.00;101065.22;5034002;28;20041;-78
2021/12/12 03:32:14;;;;;;;28.25;11.98;;;;;;;-0.64;100.00;101055.47;5032848;28;20056;-78
2021/12/12 03:34:47;;;;;;;23.87;12.47;;;;;;;-0.55;100.00;101062.41;5033924;28;20045;-78
2021/12/12 03:37:18;;;;;;;22.10;12.43;;;;;;;-0.65;100.00;101067.28;5034042;28;20052;-78
2021/12/12 03:39:50;;;;;;;23.40;12.68;;;;;;;-0.58;100.00;101078.09;5033696;28;20046;-78
2021/12/12 03:42:23;;;;;;;20.85;11.90;;;;;;;-0.59;100.00;101081.81;5033924;28;20041;-78
2021/12/12 03:44:53;;;;;;;22.73;12.75;;;;;;;-0.73;100.00;101070.09;5033574;28;20052;-78
2021/12/12 03:47:26;;;;;;;21.85;12.65;;;;;;;-0.82;100.00;101078.28;5033838;28;20044;-78
2021/12/12 03:49:56;;;;;;;25.90;12.55;;;;;;;-0.87;100.00;101080.69;5031174;28;20049;-78
2021/12/12 03:52:24;;;;;;;21.10;12.50;;;;;;;-0.60;100.00;101089.03;5033428;28;20041;-78
2021/12/12 03:54:54;;;;;;;24.13;13.27;;;;;;;-0.72;100.00;101074.44;5032915;28;20041;-78
2021/12/12 03:57:22;;;;;;;23.63;13.00;;;;;;;-0.91;100.00;101074.06;5033489;28;20052;-79
2021/12/12 03:59:51;;;;;;;25.92;13.68;;;;;;;-1.05;100.00;101069.56;5033487;28;20049;-78
2021/12/12 04:02:19;;;;;;;25.58;12.55;;;;;;;-1.02;100.00;101071.88;5028513;28;20041;-78
2021/12/12 04:04:49;;;;;;;26.30;12.13;;;;;;;-0.97;100.00;101061.41;5033535;28;20038;-78
2021/12/12 04:07:25;;;;;;;20.88;12.32;;;;;;;-0.95;100.00;101064.72;5033181;28;21170;-78
2021/12/12 04:09:55;;;;;;;26.40;12.75;;;;;;;-1.04;100.00;101085.50;5033467;28;20041;-78
2021/12/12 04:12:24;;;;;;;26.75;12.45;;;;;;;-1.11;100.00;101108.78;5028264;28;20041;-79
2021/12/12 04:14:55;;;;;;;25.42;12.50;;;;;;;-1.02;100.00;101096.88;5033237;28;20041;-78
2021/12/12 04:17:26;;;;;;;19.80;11.52;;;;;;;-0.96;100.00;101101.50;5031904;28;20045;-78
2021/12/12 04:20:02;;;;;;;20.02;10.80;;;;;;;-0.71;100.00;101092.22;5033243;28;20037;-78
2021/12/12 04:22:34;;;;;;;20.25;10.77;;;;;;;-0.45;99.59;101101.56;5032010;28;20053;-79
2021/12/12 04:25:04;;;;;;;17.80;8.90;;;;;;;-0.25;97.69;101099.03;5033156;28;20042;-79
2021/12/12 04:27:33;;;;;;;19.15;9.23;;;;;;;-0.28;97.29;101118.28;5026916;28;20045;-78
2021/12/12 04:30:05;;;;;;;19.00;9.05;;;;;;;-0.32;97.45;101122.38;5028181;28;20057;-79
2021/12/12 04:32:35;;;;;;;17.05;9.15;;;;;;;-0.36;97.12;101126.47;5032951;28;20042;-79
2021/12/12 04:35:17;;;;;;;21.05;10.25;;;;;;;-0.24;97.50;101141.06;5031818;28;20053;-79
2021/12/12 04:37:46;;;;;;;19.58;10.23;;;;;;;-0.39;98.39;101127.69;5026805;28;20037;-79
2021/12/12 04:40:20;;;;;;;20.27;10.10;;;;;;;-0.62;98.57;101142.16;5030240;28;20045;-78
2021/12/12 04:42:52;;;;;;;20.30;10.23;;;;;;;-0.91;99.82;101135.88;5032791;28;20374;-79
2021/12/12 04:45:23;;;;;;;17.58;10.65;;;;;;;-0.85;100.00;101145.00;5030586;28;20069;-78
2021/12/12 04:51:29;;;;;;;23.35;10.93;;;;;;;-1.09;100.00;101157.75;5026993;28;20041;-78
2021/12/12 04:54:24;;;;;;;19.15;10.82;;;;;;;-1.29;100.00;101152.13;5031022;28;20052;-78
2021/12/12 04:57:06;;;;;;;26.48;11.27;;;;;;;-1.37;100.00;101170.00;5026520;28;20046;-79
2021/12/12 04:59:49;;;;;;;18.65;10.45;;;;;;;-1.20;100.00;101172.50;5031566;28;20041;-78
2021/12/12 05:02:27;;;;;;;21.53;10.60;;;;;;;-1.33;100.00;101175.03;5032099;28;20053;-78
2021/12/12 05:05:06;;;;;;;22.73;11.18;;;;;;;-1.38;100.00;101171.03;5032301;28;20288;-78
2021/12/12 05:07:47;;;;;;;18.52;9.40;;;;;;;-1.26;100.00;101175.94;5031181;28;20586;-78
2021/12/12 05:10:24;;;;;;;15.60;9.18;;;;;;;-1.09;100.00;101177.41;5028618;28;20050;-78
2021/12/12 05:13:02;;;;;;;19.77;10.40;;;;;;;-0.62;99.57;101198.63;5031267;28;20048;-78
2021/12/12 05:15:34;;;;;;;21.60;11.32;;;;;;;-0.68;99.00;101197.50;5031954;28;20068;-77
2021/12/12 05:18:18;;;;;;;19.30;10.23;;;;;;;-0.97;98.85;101198.44;5032018;28;20060;-78
2021/12/12 05:20:52;;;;;;;23.08;10.48;;;;;;;-1.37;100.00;101202.22;5032008;28;20033;-78
2021/12/12 05:23:24;;;;;;;20.38;10.55;;;;;;;-1.53;100.00;101202.41;5032139;28;20396;-78
2021/12/12 05:25:59;;;;;;;22.50;12.02;;;;;;;-1.67;100.00;101206.75;5032078;28;20397;-78
2021/12/12 05:28:32;;;;;;;20.42;10.10;;;;;;;-1.73;100.00;101208.31;5028862;28;20050;-78
2021/12/12 05:31:02;;;;;;;18.65;10.43;;;;;;;-1.77;100.00;101223.09;5031729;28;20042;-78
2021/12/12 05:33:31;;;;;;;18.50;10.68;;;;;;;-1.56;100.00;101221.56;5031727;28;20048;-78
2021/12/12 05:36:00;;;;;;;20.35;10.95;;;;;;;-1.58;100.00;101227.13;5031999;28;20049;-78
2021/12/12 05:38:29;;;;;;;23.02;11.10;;;;;;;-1.56;100.00;101229.63;5022594;28;20049;-78
2021/12/12 05:40:57;;;;;;;18.52;10.13;;;;;;;-1.39;100.00;101235.66;5024152;28;20037;-78
2021/12/12 05:43:26;;;;;;;22.10;10.63;;;;;;;-1.36;100.00;101208.44;5031509;28;20045;-78
2021/12/12 05:45:54;;;;;;;19.92;10.95;;;;;;;-1.44;100.00;101206.69;5054920;28;20056;-78
2021/12/12 05:48:23;;;;;;;18.52;10.10;;;;;;;-1.51;100.00;101211.13;5031539;28;20507;-78
2021/12/12 05:50:51;;;;;;;25.05;11.05;;;;;;;-1.41;100.00;101208.97;5030766;28;20052;-78
2021/12/12 05:53:20;;;;;;;18.40;10.20;;;;;;;-1.39;100.00;101224.91;5031585;28;20511;-78
2021/12/12 05:55:49;;;;;;;21.92;10.75;;;;;;;-1.32;100.00;101225.84;5031333;28;20056;-78
2021/12/12 05:58:21;;;;;;;20.13;10.48;;;;;;;-1.42;100.00;101238.72;5031493;28;20390;-78
2021/12/12 06:00:53;;;;;;;20.98;10.95;;;;;;;-1.46;100.00;101234.72;5030744;28;20042;-78
2021/12/12 06:03:26;;;;;;;17.33;9.80;;;;;;;-1.49;100.00;101255.56;5031437;28;20049;-78
2021/12/12 06:05:56;;;;;;;20.35;9.93;;;;;;;-1.63;100.00;101254.53;5030506;28;20503;-77
2021/12/12 06:08:28;;;;;;;18.40;10.15;;;;;;;-1.38;100.00;101262.34;5030953;28;20054;-78
2021/12/12 06:10:56;;;;;;;17.70;9.90;;;;;;;-0.97;100.00;101276.34;5017451;28;20044;-85
2021/12/12 06:13:30;;;;;;;22.27;10.40;;;;;;;-0.87;100.00;101281.44;5031489;28;20041;-78
2021/12/12 06:16:00;;;;;;;22.38;10.90;;;;;;;-0.95;100.00;101282.34;5015493;28;20551;-78
2021/12/12 06:18:31;;;;;;;18.65;10.32;;;;;;;-1.17;100.00;101289.50;5032915;28;20041;-78
2021/12/12 06:21:01;;;;;;;17.88;10.23;;;;;;;-1.39;100.00;101295.56;5035544;28;20049;-78
2021/12/12 06:23:30;;;;;;;17.48;9.82;;;;;;;-1.58;100.00;101296.06;5035672;28;20049;-78
2021/12/12 06:25:58;;;;;;;20.08;9.73;;;;;;;-1.77;100.00;101292.88;5025612;28;20038;-78
2021/12/12 06:28:32;;;;;;;19.15;10.60;;;;;;;-1.85;100.00;101295.63;5035498;28;20582;-78
2021/12/12 06:31:01;;;;;;;24.05;10.13;;;;;;;-1.91;100.00;101303.38;5034871;28;20049;-78
2021/12/12 06:33:31;;;;;;;18.52;10.63;;;;;;;-2.00;100.00;101301.78;5044422;28;20041;-79
2021/12/12 06:35:59;;;;;;;15.82;9.82;;;;;;;-2.03;100.00;101316.38;5034427;28;20045;-77
2021/12/12 06:38:27;;;;;;;21.50;10.15;;;;;;;-2.09;100.00;101324.28;5034772;28;20033;-77
2021/12/12 06:40:56;;;;;;;24.50;13.32;;;;;;;-2.12;100.00;101319.28;5034556;28;20045;-78
2021/12/12 06:43:24;;;;;;;24.20;13.65;;;;;;;-2.05;100.00;101322.94;5034832;28;20042;-78
2021/12/12 06:45:52;;;;;;;25.33;13.30;;;;;;;-2.01;100.00;101318.06;5034852;28;20060;-77
2021/12/12 06:48:21;;;;;;;29.50;14.27;;;;;;;-1.98;100.00;101331.94;5034036;28;20049;-77
2021/12/12 06:50:53;;;;;;;26.45;13.18;;;;;;;-1.92;100.00;101316.97;5022539;28;20033;-77
2021/12/12 06:53:23;;;;;;;24.98;12.30;;;;;;;-1.85;100.00;101325.16;5034722;28;20049;-77
2021/12/12 06:55:52;;;;;;;27.70;13.07;;;;;;;-1.88;100.00;101323.66;5026686;28;20062;-77
2021/12/12 06:58:21;;;;;;;22.65;12.15;;;;;;;-1.81;100.00;101329.97;5026879;28;20050;-77
2021/12/12 07:00:55;;;;;;;20.98;10.95;;;;;;;-1.63;100.00;101344.94;5025914;28;20049;-77
2021/12/12 07:03:25;;;;;;;22.33;10.77;;;;;;;-1.33;100.00;101336.97;5027494;28;20056;-77
2021/12/12 07:05:53;;;;;;;25.25;11.65;;;;;;;-1.23;100.00;101342.06;5026838;28;20044;-77
2021/12/12 07:08:22;;;;;;;22.48;11.93;;;;;;;-1.35;100.00;101339.81;5025191;28;20392;-78
2021/12/12 07:10:51;;;;;;;21.08;11.65;;;;;;;-1.47;100.00;101348.53;5015093;28;20061;-77
2021/12/12 07:13:19;;;;;;;18.42;9.82;;;;;;;-1.58;100.00;101357.81;5014801;28;20050;-77
2021/12/12 07:15:51;;;;;;;25.33;10.98;;;;;;;-1.52;100.00;101359.81;5014647;28;20046;-77
2021/12/12 07:18:23;;;;;;;22.55;10.88;;;;;;;-1.50;100.00;101363.13;5015299;28;20046;-77
2021/12/12 07:20:54;;;;;;;20.42;10.85;;;;;;;-1.43;100.00;101366.75;5014444;28;20066;-77
2021/12/12 07:23:23;;;;;;;22.08;11.95;;;;;;;-1.37;100.00;101363.34;5015021;28;20516;-77
2021/12/12 07:25:51;;;;;;;22.17;11.65;;;;;;;-1.21;100.00;101366.91;5014608;28;20053;-78
2021/12/12 07:28:19;;;;;;;22.50;11.45;;;;;;;-1.08;100.00;101369.81;5014392;28;20050;-78
2021/12/12 07:30:47;;;;;;;21.95;11.57;;;;;;;-0.90;100.00;101359.72;5013569;28;20049;-78
2021/12/12 07:33:15;;;;;;;27.65;13.35;;;;;;;-0.73;100.00;101366.59;5014135;28;20049;-76
2021/12/12 07:35:45;;;;;;;21.27;11.88;;;;;;;-0.51;100.00;101369.38;5015031;28;20392;-77
2021/12/12 07:38:16;;;;;;;18.52;9.85;;;;;;;-0.24;99.68;101371.56;5014085;28;20042;-77
2021/12/12 07:40:45;;;;;;;22.23;11.30;;;;;;;-0.14;98.26;101382.88;5014359;28;20038;-77
2021/12/12 07:43:13;;;;;;;20.38;10.85;;;;;;;-0.04;98.06;101388.78;5027688;28;20052;-78
2021/12/12 07:45:42;;;;;;;23.20;11.48;;;;;;;0.26;96.31;101406.72;5029011;28;20056;-78
2021/12/12 07:48:12;;;;;;;24.55;12.77;;;;;;;0.48;93.30;101409.41;5025699;28;20050;-77
2021/12/12 07:50:43;;;;;;;26.20;13.73;;;;;;;0.42;91.90;101399.41;5030601;28;20041;-78
2021/12/12 07:53:11;;;;;;;30.50;16.10;;;;;;;0.31;92.14;101401.59;5031474;28;20369;-77
2021/12/12 07:55:40;;;;;;;42.58;23.50;;;;;;;0.32;92.88;101419.44;5030931;28;20045;-77
2021/12/12 07:58:13;;;;;;;27.50;15.15;;;;;;;0.57;91.83;101418.22;5032380;28;20053;-77
2021/12/12 08:00:44;;;;;;;36.78;19.30;;;;;;;0.68;91.87;101416.88;5032992;28;20369;-77
2021/12/12 08:03:14;;;;;;;33.10;18.67;;;;;;;0.71;91.56;101417.31;5029212;28;20045;-78
2021/12/12 08:05:43;;;;;;;31.38;18.98;;;;;;;0.85;91.08;101418.28;5048030;28;20045;-78
2021/12/12 08:08:12;;;;;;;34.17;18.83;;;;;;;1.03;91.42;101409.69;5032099;28;20680;-78
2021/12/12 08:10:44;;;;;;;32.92;15.63;;;;;;;1.14;90.22;101415.59;5025623;28;20120;-77
2021/12/12 08:13:15;;;;;;;29.20;16.50;;;;;;;1.42;89.63;101425.53;5031550;28;20064;-77
2021/12/12 08:15:44;;;;;;;25.83;14.98;;;;;;;1.82;86.07;101423.06;5031736;28;20049;-77
2021/12/12 08:18:18;;;;;;;23.58;14.43;;;;;;;1.98;87.00;101426.44;5032245;28;20042;-77
2021/12/12 08:20:49;;;;;;;25.50;14.32;;;;;;;2.10;87.82;101440.22;5027294;28;20042;-77
2021/12/12 08:23:22;;;;;;;26.38;14.10;;;;;;;2.05;85.36;101446.19;5031488;28;20045;-77
2021/12/12 08:25:51;;;;;;;18.90;11.55;;;;;;;1.88;83.25;101433.06;5024628;28;20047;-77
2021/12/12 08:28:21;;;;;;;19.25;12.13;;;;;;;2.18;84.14;101425.69;5031922;28;20045;-76
2021/12/12 08:30:51;;;;;;;20.65;12.02;;;;;;;2.60;82.70;101434.53;5027064;28;20034;-77
2021/12/12 08:33:21;;;;;;;21.55;12.48;;;;;;;2.89;80.69;101435.16;5031896;28;20042;-77
2021/12/12 08:35:50;;;;;;;21.70;12.35;;;;;;;3.18;80.06;101445.81;5031068;28;20050;-78
2021/12/12 08:38:19;;;;;;;22.67;11.50;;;;;;;3.44;79.68;101444.09;5031829;28;20056;-78
2021/12/12 08:40:52;;;;;;;21.50;11.35;;;;;;;3.66;78.67;101443.84;5032134;28;20041;-78
2021/12/12 08:43:24;;;;;;;18.70;10.85;;;;;;;3.63;76.55;101443.22;5030644;28;20061;-77
2021/12/12 08:45:56;;;;;;;16.25;9.18;;;;;;;3.86;74.31;101446.50;5031648;28;20539;-78
2021/12/12 08:48:28;;;;;;;13.30;8.55;;;;;;;4.17;73.49;101444.94;5032196;28;20052;-78
2021/12/12 08:51:01;;;;;;;19.02;9.95;;;;;;;4.43;73.52;101445.81;5031869;28;20064;-78
2021/12/12 08:53:30;;;;;;;14.50;8.77;;;;;;;4.67;70.83;101456.94;5030658;28;20045;-78
2021/12/12 08:55:59;;;;;;;18.95;10.32;;;;;;;4.77;69.85;101457.31;5031685;28;20049;-78
2021/12/12 08:58:31;;;;;;;16.88;9.23;;;;;;;5.13;68.59;101464.97;5029936;28;20045;-78
2021/12/12 09:01:09;;;;;;;16.05;8.98;;;;;;;5.09;72.57;101459.16;5031393;28;20038;-78
2021/12/12 09:03:53;;;;;;;17.73;9.48;;;;;;;4.92;69.62;101464.28;5030173;28;20048;-78
2021/12/12 09:06:36;;;;;;;16.20;9.48;;;;;;;5.06;70.66;101457.72;5027695;28;20041;-79
2021/12/12 09:09:19;;;;;;;16.27;10.05;;;;;;;5.34;69.91;101464.56;5031119;28;20049;-82
2021/12/12 09:11:55;;;;;;;15.90;8.93;;;;;;;5.43;68.87;101475.16;5030318;28;20056;-82
2021/12/12 09:14:46;;;;;;;16.92;8.50;;;;;;;5.50;67.38;101475.91;5031378;28;20055;-82
2021/12/12 09:17:21;;;;;;;13.98;8.68;;;;;;;5.55;66.58;101492.38;5025138;28;20052;-79
2021/12/12 09:20:03;;;;;;;12.98;7.60;;;;;;;5.81;64.92;101481.47;5036955;28;20052;-79
2021/12/12 09:22:41;;;;;;;17.10;8.88;;;;;;;6.00;65.97;101490.44;5032124;28;20044;-80
2021/12/12 09:25:49;;;;;;;12.93;8.43;;;;;;;6.15;63.75;101492.78;5036071;28;20397;-80
2021/12/12 09:28:35;;;;;;;12.60;8.40;;;;;;;6.44;63.80;101499.34;5022734;28;20045;-80
2021/12/12 09:31:08;;;;;;;14.70;9.63;;;;;;;6.62;62.46;101491.38;5028937;28;20538;-80
2021/12/12 09:33:55;;;;;;;17.95;10.18;;;;;;;6.71;63.03;101496.25;5031273;28;20045;-79
2021/12/12 09:36:39;;;;;;;15.73;8.73;;;;;;;6.64;64.80;101479.19;5031225;28;20045;-79
2021/12/12 09:39:17;;;;;;;16.98;10.13;;;;;;;6.86;63.72;101490.38;5031163;28;20045;-79
2021/12/12 09:42:11;;;;;;;13.20;9.02;;;;;;;6.96;62.82;101487.13;5029689;28;20057;-80
2021/12/12 09:45:03;;;;;;;16.70;10.13;;;;;;;7.08;62.49;101495.28;5027640;28;20045;-80
2021/12/12 09:51:19;;;;;;;14.13;9.90;;;;;;;7.30;62.81;101488.44;5028529;28;20052;-79
2021/12/12 09:54:22;;;;;;;16.70;11.20;;;;;;;7.44;60.76;101487.19;5048065;28;20052;-79
2021/12/12 09:57:22;;;;;;;17.80;10.68;;;;;;;7.66;61.08;101481.13;5029750;28;20041;-80
2021/12/12 10:00:08;;;;;;;15.93;10.20;;;;;;;7.81;57.56;101475.19;5027982;28;20046;-80
2021/12/12 10:02:54;;;;;;;14.68;9.30;;;;;;;7.87;58.47;101465.22;5030796;28;20050;-76
2021/12/12 10:05:53;;;;;;;14.40;9.52;;;;;;;7.81;59.83;101458.81;5026578;28;20045;-79
2021/12/12 10:08:40;;;;;;;20.02;9.32;;;;;;;7.88;58.64;101464.97;5023437;28;20038;-80
2021/12/12 10:11:29;;;;;;;13.52;8.82;;;;;;;7.86;55.88;101458.13;5019176;28;20382;-80
2021/12/12 10:14:01;;;;;;;11.75;7.88;;;;;;;8.06;55.09;101452.25;5018007;28;20050;-80
2021/12/12 10:16:49;;;;;;;13.63;8.50;;;;;;;8.17;54.26;101461.47;5023043;28;20038;-79
2021/12/12 10:19:37;;;;;;;20.50;10.75;;;;;;;7.71;58.21;101459.44;5022895;28;20060;-80
2021/12/12 10:22:23;;;;;;;19.67;10.45;;;;;;;7.62;59.51;101466.34;5014976;28;20049;-79
2021/12/12 10:25:11;;;;;;;19.67;11.60;;;;;;;8.22;58.34;101458.03;5022021;28;20048;-80
2021/12/12 10:27:49;;;;;;;20.08;11.85;;;;;;;8.16;57.16;101455.19;5026595;28;20049;-79
2021/12/12 10:30:28;;;;;;;18.15;10.45;;;;;;;8.28;57.77;101467.97;5026068;28;20400;-79
2021/12/12 10:33:46;;;;;;;16.05;9.68;;;;;;;8.06;57.14;101474.06;5024894;28;20045;-80
2021/12/12 10:36:19;;;;;;;15.60;10.23;;;;;;;8.11;58.22;101476.09;5012130;28;20519;-79
2021/12/12 10:38:53;;;;;;;20.35;10.10;;;;;;;8.23;58.54;101478.75;5020268;28;20038;-79
2021/12/12 10:41:27;;;;;;;17.83;10.32;;;;;;;8.04;57.38;101485.22;5018993;28;20037;-79
2021/12/12 10:44:05;;;;;;;17.40;9.43;;;;;;;8.02;56.55;101471.00;5019770;28;20048;-79
2021/12/12 10:47:08;;;;;;;42.75;20.95;;;;;;;8.18;59.06;101468.59;5018573;28;20068;-79
2021/12/12 10:49:41;;;;;;;20.98;12.77;;;;;;;8.14;60.27;101464.69;5013531;28;20056;-79
2021/12/12 10:52:42;;;;;;;19.77;13.00;;;;;;;7.92;59.99;101455.25;5022003;28;20821;-80
2021/12/12 10:55:13;;;;;;;23.23;13.90;;;;;;;8.06;60.36;101464.00;5023449;28;20064;-80
2021/12/12 10:57:45;;;;;;;42.65;28.50;;;;;;;7.85;62.61;101453.72;5021689;28;20046;-80
2021/12/12 11:00:18;;;;;;;24.13;18.63;;;;;;;7.92;61.13;101463.44;5026170;28;20068;-79
2021/12/12 11:02:55;;;;;;;15.60;11.07;;;;;;;7.93;61.57;101464.25;5019568;28;20046;-79
2021/12/12 11:05:51;;;;;;;20.65;12.68;;;;;;;7.86;63.86;101458.94;5025097;28;20056;-79
2021/12/12 11:08:35;;;;;;;21.45;13.23;;;;;;;7.78;64.29;101457.41;5034444;28;20050;-79
2021/12/12 11:11:12;;;;;;;22.92;13.38;;;;;;;7.87;63.89;101454.31;5033700;28;20044;-80
2021/12/12 11:13:51;;;;;;;20.65;12.55;;;;;;;8.08;61.44;101463.75;5032609;28;20037;-79
2021/12/12 11:16:27;;;;;;;18.17;12.15;;;;;;;7.99;62.67;101466.03;5031525;28;20404;-79
2021/12/12 11:19:15;;;;;;;18.63;12.20;;;;;;;7.59;64.28;101451.28;5031101;28;20045;-79
2021/12/12 11:21:50;;;;;;;17.27;12.48;;;;;;;7.15;67.47;101457.09;5028652;28;20048;-79
2021/12/12 11:24:56;;;;;;;20.63;13.18;;;;;;;7.44;67.46;101454.50;5049560;28;20378;-79
2021/12/12 11:27:31;;;;;;;20.83;12.20;;;;;;;7.47;66.86;101455.88;5032816;28;20053;-78
2021/12/12 11:30:25;;;;;;;22.20;13.57;;;;;;;7.64;68.53;101458.75;5031838;28;20050;-79
2021/12/12 11:32:55;;;;;;;19.75;12.95;;;;;;;7.68;68.21;101464.53;5033403;28;20041;-79
2021/12/12 11:35:26;;;;;;;29.02;16.35;;;;;;;7.82;66.74;101457.75;5031926;28;20037;-79
2021/12/12 11:38:11;;;;;;;22.52;15.18;;;;;;;7.80;68.04;101451.72;5033505;28;20052;-79
2021/12/12 11:40:48;;;;;;;30.35;15.98;;;;;;;7.74;69.00;101463.59;5032982;28;20056;-79
2021/12/12 11:43:27;;;;;;;31.67;23.52;;;;;;;7.81;68.99;101453.38;5033317;28;20053;-79
2021/12/12 11:46:20;;;;;;;32.97;19.02;;;;;;;7.57;69.83;101461.56;5032928;28;20053;-78
2021/12/12 11:48:59;;;;;;;36.50;20.98;;;;;;;7.62;70.98;101450.78;5025025;28;20045;-79
2021/12/12 11:51:50;;;;;;;50.63;24.10;;;;;;;7.79;70.36;101460.97;5030615;28;20057;-78
2021/12/12 11:54:55;;;;;;;28.40;17.10;;;;;;;7.86;71.13;101464.38;5032263;28;20045;-79
2021/12/12 11:57:27;;;;;;;22.60;14.68;;;;;;;7.79;72.82;101453.59;5039401;28;20045;-78
2021/12/12 12:00:14;;;;;;;24.35;14.85;;;;;;;7.39;73.67;101452.47;5033225;28;20045;-79
2021/12/12 12:02:56;;;;;;;23.30;15.57;;;;;;;7.76;73.90;101435.03;5032901;28;20042;-79
2021/12/12 12:05:58;;;;;;;21.70;15.25;;;;;;;7.99;72.59;101448.84;5028056;28;20056;-79
2021/12/12 12:08:31;;;;;;;20.52;14.95;;;;;;;8.09;71.32;101450.94;5021836;28;20064;-78
2021/12/12 12:11:26;;;;;;;22.50;14.48;;;;;;;8.47;70.88;101452.25;5009314;28;21966;-75